Time;durP1;ratioP1;P1;durP2;ratioP2;P2;SDS_P1;SDS_P2;PMS_P1;PMS_P2;Temp;Humidity;BMP_temperature;BMP_pressure;BME280_temperature;BME280_humidity;BME280_pressure;Samples;Min_cycle;Max_cycle;Signal;HPM_P1;HPM_P2
2023/06/21 00:00:15;;;;;;;0.00;0.00;;;;;;;17.40;84.78;99994.81;5074678;28;20044;-72
2023/06/21 00:02:45;;;;;;;0.00;0.00;;;;;;;17.31;84.70;100001.47;5068720;28;20020;-72
2023/06/21 00:05:11;;;;;;;0.00;0.00;;;;;;;17.25;85.03;99998.84;5086553;28;20105;-73
2023/06/21 00:07:38;;;;;;;0.00;0.00;;;;;;;17.30;85.12;99999.84;5062131;28;20050;-73
2023/06/21 00:10:06;;;;;;;0.00;0.00;;;;;;;17.29;85.04;99996.28;5091016;28;20036;-72
2023/06/21 00:12:31;;;;;;;0.00;0.00;;;;;;;17.21;84.87;99992.34;5064235;28;20027;-73
2023/06/21 00:14:57;;;;;;;0.00;0.00;;;;;;;17.09;85.69;99989.41;5078166;28;20093;-72
2023/06/21 00:17:23;;;;;;;0.00;0.00;;;;;;;16.88;85.69;99989.97;5058188;28;20034;-74
2023/06/21 00:19:49;;;;;;;0.00;0.00;;;;;;;16.71;86.27;99993.44;5072925;28;20474;-74
2023/06/21 00:22:21;;;;;;;0.00;0.00;;;;;;;16.56;86.63;99997.44;5051770;28;20401;-74
2023/06/21 00:24:47;;;;;;;0.00;0.00;;;;;;;16.42;87.52;99999.47;5071924;28;20024;-73
2023/06/21 00:27:13;;;;;;;0.00;0.00;;;;;;;16.22;87.63;99979.56;5054166;28;20039;-73
2023/06/21 00:29:38;;;;;;;0.00;0.00;;;;;;;16.22;87.57;100000.78;5052308;28;20024;-73
2023/06/21 00:32:04;;;;;;;0.00;0.00;;;;;;;16.14;87.95;99996.84;5049668;28;20489;-72
2023/06/21 00:34:29;;;;;;;0.00;0.00;;;;;;;16.09;88.51;100001.66;5099920;28;20027;-73
2023/06/21 00:36:55;;;;;;;0.00;0.00;;;;;;;16.00;88.37;99994.16;5074041;28;20027;-74
2023/06/21 00:39:20;;;;;;;0.00;0.00;;;;;;;15.99;88.69;99997.22;5086642;28;20028;-73
2023/06/21 00:41:46;;;;;;;0.00;0.00;;;;;;;15.95;88.74;99996.22;5078842;28;20028;-73
2023/06/21 00:44:11;;;;;;;0.00;0.00;;;;;;;15.88;88.77;99989.19;5045483;28;20024;-72
2023/06/21 00:46:37;;;;;;;0.00;0.00;;;;;;;15.80;89.14;99989.13;5058989;28;20020;-73
2023/06/21 00:49:02;;;;;;;0.00;0.00;;;;;;;15.76;88.99;99991.66;5042490;28;20026;-73
2023/06/21 00:51:29;;;;;;;0.00;0.00;;;;;;;15.69;89.07;99988.53;5095249;28;20060;-73
2023/06/21 00:53:56;;;;;;;0.00;0.00;;;;;;;15.60;89.43;99979.38;5092665;28;20024;-73
2023/06/21 00:56:21;;;;;;;0.00;0.00;;;;;;;15.55;90.07;99977.56;5055015;28;20110;-73
2023/06/21 00:58:47;;;;;;;0.00;0.00;;;;;;;15.54;89.52;99982.22;5064871;28;20126;-73
2023/06/21 01:01:12;;;;;;;0.00;0.00;;;;;;;15.50;89.90;99981.22;5065945;28;20027;-73
2023/06/21 01:03:38;;;;;;;0.00;0.00;;;;;;;15.47;90.12;99987.34;5096037;28;20063;-73
2023/06/21 01:06:10;;;;;;;0.00;0.00;;;;;;;15.48;90.40;99988.19;5069550;28;20574;-73
2023/06/21 01:08:45;;;;;;;0.00;0.00;;;;;;;15.44;90.40;99990.72;5086170;27;20028;-72
2023/06/21 01:11:30;;;;;;;0.00;0.00;;;;;;;15.39;90.44;99999.13;5073834;28;20441;-71
2023/06/21 01:14:08;;;;;;;0.00;0.00;;;;;;;15.34;90.69;99999.22;5090642;28;20068;-72
2023/06/21 01:16:44;;;;;;;0.00;0.00;;;;;;;15.26;90.72;99997.16;5094460;28;20677;-72
2023/06/21 01:19:24;;;;;;;0.00;0.00;;;;;;;15.23;91.09;99997.78;5081934;28;20164;-72
2023/06/21 01:21:51;;;;;;;0.00;0.00;;;;;;;15.15;91.24;100002.91;5103559;28;20051;-73
2023/06/21 01:24:22;;;;;;;0.00;0.00;;;;;;;15.15;91.63;100016.66;5043920;28;20370;-73
2023/06/21 01:27:13;;;;;;;0.00;0.00;;;;;;;15.10;91.64;100015.94;5099419;28;20035;-73
2023/06/21 01:29:40;;;;;;;0.00;0.00;;;;;;;15.00;92.30;100017.00;5087264;28;20015;-73
2023/06/21 01:32:10;;;;;;;0.00;0.00;;;;;;;14.97;92.57;100017.59;5061814;28;20043;-71
2023/06/21 01:34:36;;;;;;;0.00;0.00;;;;;;;14.90;92.94;100028.19;5082121;28;20462;-71
2023/06/21 01:37:05;;;;;;;0.00;0.00;;;;;;;14.80;92.92;100030.00;5114614;28;20035;-72
2023/06/21 01:39:31;;;;;;;0.00;0.00;;;;;;;14.80;93.28;100043.78;5062942;28;20084;-72
2023/06/21 01:41:58;;;;;;;0.00;0.00;;;;;;;14.76;93.48;100034.50;5078075;28;20396;-73
2023/06/21 01:44:25;;;;;;;0.00;0.00;;;;;;;14.71;93.37;100037.34;5083771;28;20035;-72
2023/06/21 01:46:53;;;;;;;0.00;0.00;;;;;;;14.58;93.20;100025.16;5104928;28;20027;-73
2023/06/21 01:49:20;;;;;;;0.00;0.00;;;;;;;14.62;93.36;100033.66;5105817;28;20020;-72
2023/06/21 01:51:46;;;;;;;0.00;0.00;;;;;;;14.34;93.63;99997.81;5101005;28;21249;-72
2023/06/21 01:54:13;;;;;;;0.00;0.00;;;;;;;14.57;93.42;100036.47;5077015;28;20034;-72
2023/06/21 01:56:42;;;;;;;0.00;0.00;;;;;;;14.54;93.67;100053.59;5066330;28;20379;-73
2023/06/21 01:59:08;;;;;;;0.00;0.00;;;;;;;14.40;93.66;100026.84;5093707;28;20028;-73
2023/06/21 02:01:36;;;;;;;0.00;0.00;;;;;;;14.52;93.86;100050.31;5065948;28;20887;-75
2023/06/21 02:04:04;;;;;;;0.00;0.00;;;;;;;14.48;94.12;100050.94;5083486;28;20043;-73
2023/06/21 02:06:31;;;;;;;0.00;0.00;;;;;;;14.46;94.33;100053.16;5084359;28;20055;-73
2023/06/21 02:08:59;;;;;;;0.00;0.00;;;;;;;14.43;94.33;100048.25;5071136;28;20017;-73
2023/06/21 02:11:28;;;;;;;0.00;0.00;;;;;;;14.34;94.56;100044.56;5064748;28;20047;-74
2023/06/21 02:13:53;;;;;;;0.00;0.00;;;;;;;14.36;95.20;100053.31;5061433;28;20038;-74
2023/06/21 02:16:27;;;;;;;0.00;0.00;;;;;;;14.34;95.28;100055.56;5054349;28;20024;-73
2023/06/21 02:18:53;;;;;;;0.00;0.00;;;;;;;14.35;95.50;100057.19;5076287;28;20027;-73
2023/06/21 02:21:20;;;;;;;0.00;0.00;;;;;;;14.31;95.67;100056.19;5068494;28;20039;-74
2023/06/21 02:23:45;;;;;;;0.00;0.00;;;;;;;14.28;96.19;100063.09;5093224;28;20413;-74
2023/06/21 02:26:10;;;;;;;0.00;0.00;;;;;;;14.26;95.96;100053.50;5075860;28;20153;-74
2023/06/21 02:28:36;;;;;;;0.00;0.00;;;;;;;14.23;96.48;100054.91;5053042;28;20020;-72
2023/06/21 02:31:01;;;;;;;0.00;0.00;;;;;;;14.25;97.05;100054.59;5079997;28;20039;-73
2023/06/21 02:33:27;;;;;;;0.00;0.00;;;;;;;14.21;96.72;100062.66;5070331;28;20074;-73
2023/06/21 02:35:52;;;;;;;0.00;0.00;;;;;;;14.24;96.73;100072.25;5093918;28;20152;-73
2023/06/21 02:38:19;;;;;;;0.00;0.00;;;;;;;14.23;97.05;100062.34;5072951;28;20038;-73
2023/06/21 02:40:45;;;;;;;0.00;0.00;;;;;;;14.24;97.38;100066.75;5086782;28;20090;-73
2023/06/21 02:43:10;;;;;;;0.00;0.00;;;;;;;14.15;97.13;100047.34;5104698;28;20454;-73
2023/06/21 02:45:36;;;;;;;0.00;0.00;;;;;;;14.11;97.59;100049.06;5084402;28;20066;-73
2023/06/21 02:48:03;;;;;;;0.00;0.00;;;;;;;14.08;97.85;100053.22;5075816;28;20042;-72
2023/06/21 02:50:29;;;;;;;0.00;0.00;;;;;;;14.08;97.81;100064.22;5053235;28;20039;-74
2023/06/21 02:52:54;;;;;;;0.00;0.00;;;;;;;14.03;98.02;100060.72;5071418;28;20493;-72
2023/06/21 02:55:19;;;;;;;0.00;0.00;;;;;;;13.97;98.04;100057.22;5086905;28;20047;-71
2023/06/21 02:57:45;;;;;;;0.00;0.00;;;;;;;13.94;98.16;100064.16;5051930;28;20156;-72
2023/06/21 03:00:27;;;;;;;0.00;0.00;;;;;;;13.92;98.21;100063.63;5054665;28;20031;-73
2023/06/21 03:02:53;;;;;;;0.00;0.00;;;;;;;13.91;98.26;100072.16;5101700;27;20474;-73
2023/06/21 03:05:18;;;;;;;0.00;0.00;;;;;;;13.93;98.33;100078.16;5079649;28;20055;-72
2023/06/21 03:07:44;;;;;;;0.00;0.00;;;;;;;13.83;98.54;100072.81;5103989;27;20050;-73
2023/06/21 03:10:15;;;;;;;0.00;0.00;;;;;;;13.90;98.50;100082.34;5051152;28;20394;-72
2023/06/21 03:12:42;;;;;;;0.00;0.00;;;;;;;13.90;98.64;100084.25;5068367;28;20123;-72
2023/06/21 03:15:09;;;;;;;0.00;0.00;;;;;;;13.85;98.85;100081.59;5092639;28;20028;-71
2023/06/21 03:17:35;;;;;;;0.00;0.00;;;;;;;13.88;98.55;100097.50;5097038;28;20035;-71
2023/06/21 03:20:02;;;;;;;0.00;0.00;;;;;;;13.87;98.74;100084.88;5093476;28;20113;-71
2023/06/21 03:22:28;;;;;;;0.00;0.00;;;;;;;13.94;98.25;100085.31;5074465;28;20023;-71
2023/06/21 03:24:53;;;;;;;0.00;0.00;;;;;;;14.09;97.80;100098.00;5043759;28;20028;-71
2023/06/21 03:27:19;;;;;;;0.00;0.00;;;;;;;14.11;97.66;100102.09;5098392;28;20176;-72
2023/06/21 03:29:44;;;;;;;0.00;0.00;;;;;;;14.18;97.19;100106.41;5059371;28;20056;-73
2023/06/21 03:32:10;;;;;;;0.00;0.00;;;;;;;14.16;97.06;100097.66;5066688;28;20039;-73
2023/06/21 03:34:35;;;;;;;0.00;0.00;;;;;;;14.11;97.26;100098.56;5048253;28;20073;-71
2023/06/21 03:37:01;;;;;;;0.00;0.00;;;;;;;14.12;97.62;100105.69;5093586;28;21100;-71
2023/06/21 03:39:26;;;;;;;0.00;0.00;;;;;;;14.05;98.07;100108.81;5057159;28;20546;-71
2023/06/21 03:41:51;;;;;;;0.00;0.00;;;;;;;13.98;98.10;100102.84;5068519;28;20016;-70
2023/06/21 03:44:17;;;;;;;0.00;0.00;;;;;;;13.93;98.36;100123.00;5080948;28;20034;-71
2023/06/21 03:46:42;;;;;;;0.00;0.00;;;;;;;13.78;98.57;100110.28;5077292;28;20028;-72
2023/06/21 03:49:08;;;;;;;0.00;0.00;;;;;;;13.74;99.26;100111.97;5047658;28;20015;-70
2023/06/21 03:51:33;;;;;;;0.00;0.00;;;;;;;13.69;99.60;100117.53;5068345;28;20085;-70
2023/06/21 03:53:59;;;;;;;0.00;0.00;;;;;;;13.75;100.00;100121.84;5066957;28;20116;-70
2023/06/21 03:56:24;;;;;;;0.00;0.00;;;;;;;13.83;99.66;100122.28;5067297;28;20505;-71
2023/06/21 03:58:50;;;;;;;0.00;0.00;;;;;;;13.97;99.66;100117.69;5082417;27;20035;-70
2023/06/21 04:01:16;;;;;;;0.00;0.00;;;;;;;14.05;99.30;100119.00;5093027;28;20420;-72
2023/06/21 04:03:41;;;;;;;0.00;0.00;;;;;;;14.17;98.74;100121.28;5085387;28;20535;-72
2023/06/21 04:06:07;;;;;;;0.00;0.00;;;;;;;14.28;98.47;100128.25;5062225;28;20031;-71
2023/06/21 04:08:32;;;;;;;0.00;0.00;;;;;;;14.30;98.05;100126.03;5072145;28;20040;-71
2023/06/21 04:10:58;;;;;;;0.00;0.00;;;;;;;14.35;97.80;100125.94;5080652;28;20038;-71
2023/06/21 04:13:23;;;;;;;0.00;0.00;;;;;;;14.35;97.48;100128.69;5086788;28;20035;-71
2023/06/21 04:15:48;;;;;;;0.00;0.00;;;;;;;14.42;97.50;100134.63;5094032;28;20043;-71
2023/06/21 04:18:14;;;;;;;0.00;0.00;;;;;;;14.26;97.56;100108.50;5070008;28;20031;-71
2023/06/21 04:20:39;;;;;;;0.00;0.00;;;;;;;14.53;97.95;100139.97;5072207;28;20244;-70
2023/06/21 04:23:05;;;;;;;0.00;0.00;;;;;;;14.35;97.79;100109.44;5065263;28;20051;-72
2023/06/21 04:25:30;;;;;;;0.00;0.00;;;;;;;14.61;97.89;100147.56;5064077;28;20031;-72
2023/06/21 04:27:56;;;;;;;0.00;0.00;;;;;;;14.67;97.82;100154.66;5113862;27;20036;-72
2023/06/21 04:30:21;;;;;;;0.00;0.00;;;;;;;14.68;97.94;100156.28;5075105;28;20778;-72
2023/06/21 04:32:47;;;;;;;0.00;0.00;;;;;;;14.69;97.76;100155.19;5069661;28;20028;-71
2023/06/21 04:35:16;;;;;;;0.00;0.00;;;;;;;14.68;97.55;100159.03;5090307;28;20027;-71
2023/06/21 04:37:44;;;;;;;0.00;0.00;;;;;;;14.66;97.49;100169.53;5072300;28;20397;-71
2023/06/21 04:40:17;;;;;;;0.00;0.00;;;;;;;14.51;97.28;100169.75;5055084;28;20147;-72
2023/06/21 04:42:44;;;;;;;0.00;0.00;;;;;;;14.30;97.72;100159.03;5106510;28;20015;-71
2023/06/21 04:45:19;;;;;;;0.00;0.00;;;;;;;14.28;98.00;100177.75;5085054;28;20027;-71
2023/06/21 04:47:48;;;;;;;0.00;0.00;;;;;;;14.25;97.58;100178.34;5052377;28;20028;-72
2023/06/21 04:50:14;;;;;;;0.00;0.00;;;;;;;14.33;97.76;100185.94;5076590;28;20038;-71
2023/06/21 04:52:40;;;;;;;0.00;0.00;;;;;;;14.54;96.99;100191.16;5068812;28;20051;-72
2023/06/21 04:55:06;;;;;;;0.00;0.00;;;;;;;14.75;96.18;100192.50;5062507;28;20054;-72
2023/06/21 04:57:32;;;;;;;0.00;0.00;;;;;;;14.92;95.26;100197.47;5070407;28;20081;-72
2023/06/21 04:59:58;;;;;;;0.00;0.00;;;;;;;15.02;94.43;100201.97;5081838;28;20620;-71
2023/06/21 05:02:24;;;;;;;0.00;0.00;;;;;;;15.14;93.93;100212.50;5064484;28;20085;-76
2023/06/21 05:04:50;;;;;;;0.00;0.00;;;;;;;15.23;93.84;100215.38;5077393;27;20059;-74
2023/06/21 05:07:15;;;;;;;0.00;0.00;;;;;;;15.32;92.88;100211.63;5056524;28;20051;-76
2023/06/21 05:09:41;;;;;;;0.00;0.00;;;;;;;15.37;92.63;100207.97;5070821;28;20047;-73
2023/06/21 05:12:08;;;;;;;0.00;0.00;;;;;;;15.49;92.36;100227.59;5072460;28;20030;-73
2023/06/21 05:14:34;;;;;;;0.00;0.00;;;;;;;15.52;92.01;100218.72;5062690;28;20229;-72
2023/06/21 05:16:59;;;;;;;0.00;0.00;;;;;;;15.62;91.80;100225.97;5088133;28;20099;-72
2023/06/21 05:19:24;;;;;;;0.00;0.00;;;;;;;15.75;91.35;100232.59;5034862;28;20063;-72
2023/06/21 05:21:50;;;;;;;0.00;0.00;;;;;;;15.85;91.39;100235.19;5104210;28;20034;-72
2023/06/21 05:24:15;;;;;;;0.00;0.00;;;;;;;15.97;90.10;100240.19;5066551;28;20033;-73
2023/06/21 05:26:44;;;;;;;0.00;0.00;;;;;;;15.99;89.84;100228.84;5046354;28;20061;-72
2023/06/21 05:29:13;;;;;;;0.00;0.00;;;;;;;15.94;89.58;100231.72;5068204;28;20146;-73
2023/06/21 05:31:42;;;;;;;0.00;0.00;;;;;;;15.90;89.38;100230.72;5076005;28;20110;-73
2023/06/21 05:34:07;;;;;;;0.00;0.00;;;;;;;15.83;89.99;100231.13;5086818;28;20028;-74
2023/06/21 05:36:33;;;;;;;0.00;0.00;;;;;;;15.78;89.84;100239.47;5065342;28;20459;-73
2023/06/21 05:38:58;;;;;;;0.00;0.00;;;;;;;15.68;90.14;100232.19;5056488;28;20119;-74
2023/06/21 05:41:24;;;;;;;0.00;0.00;;;;;;;15.60;90.07;100239.25;5097403;28;20031;-73
2023/06/21 05:43:49;;;;;;;0.00;0.00;;;;;;;15.57;90.60;100245.38;5056086;28;20027;-75
2023/06/21 05:46:14;;;;;;;0.00;0.00;;;;;;;15.51;90.52;100252.91;5082813;28;20084;-72
2023/06/21 05:48:40;;;;;;;0.00;0.00;;;;;;;15.45;90.42;100243.09;5058209;28;20080;-73
2023/06/21 05:51:05;;;;;;;0.00;0.00;;;;;;;15.49;90.28;100252.41;5095710;28;20508;-75
2023/06/21 05:53:31;;;;;;;0.00;0.00;;;;;;;15.58;90.27;100251.69;5064805;28;20039;-74
2023/06/21 05:55:56;;;;;;;0.00;0.00;;;;;;;15.62;90.06;100248.00;5104099;27;20020;-73
2023/06/21 05:58:29;;;;;;;0.00;0.00;;;;;;;15.69;89.75;100253.94;5064766;28;20466;-72
2023/06/21 06:30:22;;;;;;;;;;;;;;;;;;;;;
2023/06/21 06:33:00;;;;;;;;;;;;;;;;;;;;;
2023/06/21 06:35:39;;;;;;;;;;;;;;;;;;;;;
2023/06/21 06:38:05;;;;;;;0.00;0.00;;;;;;;17.82;82.96;100317.16;4947173;28;20040;-78
2023/06/21 06:40:30;;;;;;;0.00;0.00;;;;;;;17.98;82.54;100317.59;5013155;28;20036;-80
2023/06/21 06:42:57;;;;;;;0.00;0.00;;;;;;;18.17;82.22;100298.78;5043899;28;20020;-78
2023/06/21 06:45:22;;;;;;;0.00;0.00;;;;;;;18.69;80.77;100327.72;5030566;28;20021;-78
2023/06/21 06:47:48;;;;;;;0.00;0.00;;;;;;;18.79;79.27;100324.66;5073489;28;20039;-77
2023/06/21 06:50:22;;;;;;;0.00;0.00;;;;;;;18.88;78.83;100316.38;5021323;28;20028;-80
2023/06/21 06:52:55;;;;;;;0.00;0.00;;;;;;;19.04;77.84;100325.03;5063923;28;20429;-78
2023/06/21 06:55:41;;;;;;;0.00;0.00;;;;;;;19.19;77.46;100343.94;5056814;28;20039;-78
2023/06/21 06:58:07;;;;;;;0.00;0.00;;;;;;;19.19;77.10;100338.41;5058324;28;20036;-78
2023/06/21 07:00:35;;;;;;;0.00;0.00;;;;;;;19.56;76.51;100363.00;5085418;28;20520;-80
2023/06/21 07:03:03;;;;;;;0.00;0.00;;;;;;;19.83;74.87;100362.66;5065825;28;20020;-77
2023/06/21 07:05:35;;;;;;;0.00;0.00;;;;;;;19.64;73.68;100321.38;5047851;28;20039;-77
2023/06/21 07:08:20;;;;;;;0.00;0.00;;;;;;;19.83;72.85;100368.19;5066427;28;20541;-78
2023/06/21 07:10:56;;;;;;;;;;;;;;;;;;;;;
2023/06/21 07:13:31;;;;;;;0.00;0.00;;;;;;;19.19;74.16;100332.88;5078742;28;20023;-77
2023/06/21 07:15:59;;;;;;;0.00;0.00;;;;;;;19.06;74.91;100354.03;5059270;28;20044;-78
2023/06/21 07:18:41;;;;;;;0.00;0.00;;;;;;;18.55;76.04;100319.56;5055097;28;20066;-81
2023/06/21 07:21:09;;;;;;;0.00;0.00;;;;;;;18.24;77.34;100328.78;5068609;28;20111;-78
2023/06/21 07:23:55;;;;;;;0.00;0.00;;;;;;;18.25;78.18;100350.59;5064382;28;20021;-79
2023/06/21 07:26:20;;;;;;;0.00;0.00;;;;;;;18.37;78.61;100368.53;5062709;28;20027;-78
2023/06/21 07:28:46;;;;;;;0.00;0.00;;;;;;;18.42;78.67;100349.00;5071083;28;20466;-77
2023/06/21 07:31:11;;;;;;;0.00;0.00;;;;;;;18.71;77.57;100333.78;5055627;28;20422;-78
2023/06/21 07:34:01;;;;;;;0.00;0.00;;;;;;;19.26;75.03;100369.22;5069396;28;20553;-78
2023/06/21 07:36:34;;;;;;;0.00;0.00;;;;;;;19.39;73.20;100363.81;5052545;28;20020;-76
2023/06/21 08:13:39;;;;;;;0.00;0.00;;;;;;;20.70;64.85;100371.78;4792641;26;20036;-78
2023/06/21 08:16:22;;;;;;;0.00;0.00;;;;;;;20.53;64.50;100356.84;5054758;28;20028;-77
2023/06/21 08:18:55;;;;;;;0.00;0.00;;;;;;;20.45;65.14;100381.88;5051865;28;20033;-79
2023/06/21 08:21:20;;;;;;;0.00;0.00;;;;;;;20.29;65.72;100362.97;5080919;28;20024;-77
2023/06/21 08:23:55;;;;;;;0.00;0.00;;;;;;;20.55;65.64;100375.94;5061856;28;20066;-78
2023/06/21 08:26:41;;;;;;;0.00;0.00;;;;;;;20.91;64.95;100394.06;5062057;28;20527;-78
2023/06/21 08:29:14;;;;;;;0.00;0.00;;;;;;;21.52;61.64;100423.41;5052533;28;20059;-77
2023/06/21 08:31:39;;;;;;;0.00;0.00;;;;;;;21.51;60.36;100371.69;5052481;28;20055;-77
2023/06/21 08:34:28;;;;;;;0.00;0.00;;;;;;;21.93;59.86;100378.00;5066649;28;20048;-81
2023/06/21 08:37:35;;;;;;;0.00;0.00;;;;;;;22.35;58.58;100393.75;5062158;28;20804;-82
2023/06/21 08:40:02;;;;;;;0.00;0.00;;;;;;;22.53;57.87;100410.25;5049050;28;20040;-80
2023/06/21 08:45:13;;;;;;;0.00;0.00;;;;;;;22.85;58.10;100416.84;5057450;28;20033;-79
2023/06/21 08:47:41;;;;;;;0.00;0.00;;;;;;;23.26;57.39;100401.03;5070833;28;20547;-78
2023/06/21 08:50:17;;;;;;;;;;;;;;;;;;;;;
2023/06/21 08:53:18;;;;;;;0.00;0.00;;;;;;;24.25;53.41;100406.16;5079918;28;20023;-78
2023/06/21 08:56:22;;;;;;;;;;;;;;;;;;;;;
2023/06/21 09:00:01;;;;;;;0.00;0.00;;;;;;;24.78;51.05;100386.34;5071391;28;20036;-77
2023/06/21 09:02:44;;;;;;;0.00;0.00;;;;;;;25.07;50.61;100393.38;4965713;28;20050;-78
2023/06/21 09:05:16;;;;;;;0.00;0.00;;;;;;;24.92;50.97;100386.63;4982552;28;20061;-77
2023/06/21 09:07:42;;;;;;;0.00;0.00;;;;;;;24.51;50.10;100400.03;5060928;28;20044;-76
2023/06/21 09:10:23;;;;;;;0.00;0.00;;;;;;;23.94;51.10;100381.81;5055814;28;20028;-77
2023/06/21 09:12:57;;;;;;;0.00;0.00;;;;;;;24.00;52.00;100392.34;5063241;28;20049;-78
2023/06/21 09:15:25;;;;;;;0.00;0.00;;;;;;;24.82;51.48;100398.38;5061522;28;20055;-76
2023/06/21 09:18:20;;;;;;;0.00;0.00;;;;;;;25.50;48.70;100407.50;5037446;28;20542;-78
2023/06/21 09:20:49;;;;;;;;;;;;;;;26.11;46.51;100428.31;5049861;28;20040;-77
2023/06/21 09:23:20;;;;;;;0.00;0.00;;;;;;;26.33;44.72;100405.47;5049438;28;20332;-77
2023/06/21 09:26:03;;;;;;;0.00;0.00;;;;;;;26.76;44.95;100390.19;5065708;28;20468;-77
2023/06/21 09:28:57;;;;;;;0.00;0.00;;;;;;;26.75;42.63;100427.00;5050545;28;20033;-79
2023/06/21 09:31:22;;;;;;;0.00;0.00;;;;;;;26.09;43.33;100405.50;5061808;28;20621;-78
2023/06/21 09:34:02;;;;;;;0.00;0.00;;;;;;;26.37;44.73;100400.72;5068504;28;20027;-79
2023/06/21 09:36:31;;;;;;;0.00;0.00;;;;;;;26.88;42.66;100414.38;5063594;28;20051;-78
2023/06/21 09:39:17;;;;;;;0.00;0.00;;;;;;;27.20;41.82;100438.50;5067198;28;20032;-78
2023/06/21 09:41:43;;;;;;;0.00;0.00;;;;;;;26.81;41.14;100391.88;5048118;28;20109;-78
2023/06/21 09:44:45;;;;;;;;;;;;;;;;;;;;;
2023/06/21 09:47:12;;;;;;;0.00;0.00;;;;;;;25.44;44.47;100411.78;5063948;28;20385;-78
2023/06/21 09:50:19;;;;;;;0.00;0.00;;;;;;;25.26;45.91;100426.19;5077480;28;20433;-78
2023/06/21 09:52:49;;;;;;;0.00;0.00;;;;;;;24.89;46.16;100387.38;5042989;28;20040;-80
2023/06/21 09:55:15;;;;;;;0.00;0.00;;;;;;;25.65;45.80;100438.59;5068235;28;20040;-78
2023/06/21 09:57:41;;;;;;;0.00;0.00;;;;;;;26.59;44.68;100413.09;5068050;28;20020;-79
2023/06/21 10:00:20;;;;;;;0.00;0.00;;;;;;;27.16;42.88;100407.56;5016465;28;20115;-78
2023/06/21 10:02:45;;;;;;;0.00;0.00;;;;;;;27.29;41.56;100437.03;5069820;28;20437;-76
2023/06/21 10:05:19;;;;;;;0.00;0.00;;;;;;;26.85;41.81;100419.97;5059087;28;20107;-78
2023/06/21 10:08:04;;;;;;;0.00;0.00;;;;;;;26.56;42.63;100437.13;5051153;28;20033;-76
2023/06/21 10:10:51;;;;;;;0.00;0.00;;;;;;;25.95;43.51;100436.81;5065328;28;20074;-77
2023/06/21 10:13:19;;;;;;;0.00;0.00;;;;;;;25.94;44.96;100451.19;5044358;28;20123;-77
2023/06/21 10:16:05;;;;;;;0.00;0.00;;;;;;;26.12;44.19;100460.78;5046087;28;20036;-77
2023/06/21 10:18:41;;;;;;;;;;;;;;;;;;;;;
2023/06/21 10:21:15;;;;;;;0.00;0.00;;;;;;;25.70;44.59;100418.69;5050415;28;20033;-77
2023/06/21 10:24:08;;;;;;;0.00;0.00;;;;;;;25.78;44.82;100438.06;5056484;28;20732;-77
2023/06/21 10:30:20;;;;;;;0.00;0.00;;;;;;;24.78;46.83;100430.25;5003531;28;20034;-77
2023/06/21 10:32:56;;;;;;;0.00;0.00;;;;;;;24.50;47.18;100431.97;5003021;28;20045;-77
2023/06/21 10:35:38;;;;;;;0.00;0.00;;;;;;;24.41;48.79;100445.28;5001975;28;20111;-76
2023/06/21 10:38:44;;;;;;;0.00;0.00;;;;;;;24.58;48.54;100436.53;5017742;28;20044;-78
2023/06/21 10:41:14;;;;;;;0.00;0.00;;;;;;;24.65;48.28;100427.56;5054101;28;20128;-77
2023/06/21 10:43:40;;;;;;;0.00;0.00;;;;;;;25.01;48.15;100470.34;5057041;28;20053;-77
2023/06/21 10:46:41;;;;;;;;;;;;;;;;;;;;;
2023/06/21 10:49:09;;;;;;;0.00;0.00;;;;;;;24.28;49.08;100424.19;5047632;28;20017;-78
2023/06/21 10:51:40;;;;;;;0.00;0.00;;;;;;;24.16;49.61;100465.00;5043881;28;20107;-77
2023/06/21 10:54:22;;;;;;;;;;;;;;;;;;;;;
2023/06/21 10:56:57;;;;;;;0.00;0.00;;;;;;;23.32;52.39;100451.81;5051149;28;20021;-78
2023/06/21 10:59:25;;;;;;;0.00;0.00;;;;;;;23.21;53.58;100464.63;5059666;28;20021;-78
2023/06/21 11:02:01;;;;;;;0.00;0.00;;;;;;;22.20;58.93;100452.91;5061493;28;20036;-77
2023/06/21 11:04:49;;;;;;;0.00;0.00;;;;;;;20.96;64.52;100474.47;5067628;28;20029;-78
2023/06/21 11:07:14;;;;;;;0.00;0.00;;;;;;;19.97;68.64;100450.44;5059474;28;20462;-76
2023/06/21 11:09:39;;;;;;;0.00;0.00;;;;;;;19.68;73.77;100488.78;5046340;28;20090;-77
2023/06/21 11:12:07;;;;;;;0.00;0.00;;;;;;;19.26;76.81;100476.50;5058903;28;20460;-77
2023/06/21 11:17:37;;;;;;;0.00;0.00;;;;;;;18.93;78.42;100454.75;5049745;28;20043;-77
2023/06/21 11:20:47;;;;;;;0.00;0.00;;;;;;;19.08;77.82;100467.34;5060279;28;20812;-78
2023/06/21 11:23:23;;;;;;;0.00;0.00;;;;;;;18.94;79.02;100448.91;5059966;28;20052;-77
2023/06/21 11:26:31;;;;;;;0.00;0.00;;;;;;;19.52;79.03;100482.91;5061379;28;20047;-78
2023/06/21 11:29:15;;;;;;;0.00;0.00;;;;;;;20.03;78.63;100465.78;5057571;28;20132;-78
2023/06/21 11:31:40;;;;;;;0.00;0.00;;;;;;;20.60;75.92;100464.63;5044135;28;20040;-78
2023/06/21 11:34:42;;;;;;;;;;;;;;;;;;;;;
2023/06/21 11:37:40;;;;;;;0.00;0.00;;;;;;;22.16;71.28;100477.00;5067259;28;20030;-76
2023/06/21 11:40:18;;;;;;;;;;;;;;;;;;;;;
2023/06/21 11:43:12;;;;;;;0.00;0.00;;;;;;;31.14;42.30;100463.97;5059979;28;20012;-76
2023/06/21 11:45:40;;;;;;;0.00;0.00;;;;;;;33.15;36.07;100441.34;5061405;28;20028;-78
2023/06/21 11:48:11;;;;;;;0.00;0.00;;;;;;;34.12;34.35;100464.06;5035520;28;20054;-76
2023/06/21 11:50:48;;;;;;;0.00;0.00;;;;;;;34.57;32.75;100461.75;5060326;28;20017;-77
2023/06/21 11:53:20;;;;;;;0.00;0.00;;;;;;;36.36;32.42;100492.00;5047870;28;20028;-77
2023/06/21 11:57:01;;;;;;;;;;;;;;;;;;;;;
2023/06/21 11:59:11;;;;;;;0.00;0.00;;;;;;;34.60;29.95;100455.22;5038318;28;20041;-77
2023/06/21 12:01:42;;;;;;;0.00;0.00;;;;;;;36.23;29.55;100447.13;5053344;28;20091;-76
2023/06/21 12:04:31;;;;;;;0.00;0.00;;;;;;;34.65;29.63;100433.25;5054737;28;20029;-78
2023/06/21 12:06:59;;;;;;;0.00;0.00;;;;;;;32.80;31.96;100480.13;5048664;28;20029;-77
2023/06/21 12:10:03;;;;;;;0.00;0.00;;;;;;;33.04;33.68;100485.97;5062199;28;20052;-77
2023/06/21 12:12:35;;;;;;;0.00;0.00;;;;;;;37.04;28.65;100451.19;5050747;28;20033;-77
2023/06/21 12:15:00;;;;;;;0.00;0.00;;;;;;;39.50;23.76;100469.91;5049351;28;20432;-76
2023/06/21 12:17:39;;;;;;;;;;;;;;;;;;;;;
2023/06/21 12:20:10;;;;;;;0.00;0.00;;;;;;;39.58;22.52;100464.75;5056125;28;20367;-78
2023/06/21 12:22:36;;;;;;;0.00;0.00;;;;;;;39.54;22.42;100469.78;5054868;28;20442;-76
2023/06/21 12:25:18;;;;;;;0.00;0.00;;;;;;;37.10;24.15;100476.31;5057028;28;20032;-77
2023/06/21 12:31:44;;;;;;;0.00;0.00;;;;;;;39.72;21.89;100475.66;5062506;28;20090;-77
2023/06/21 12:34:49;;;;;;;0.00;0.00;;;;;;;37.66;23.55;100458.84;5061970;28;20033;-77
2023/06/21 12:37:21;;;;;;;0.00;0.00;;;;;;;34.62;27.23;100457.63;5059021;28;20175;-75
2023/06/21 12:39:52;;;;;;;0.00;0.00;;;;;;;35.53;28.01;100486.03;5045260;28;20112;-76
2023/06/21 12:42:19;;;;;;;0.00;0.00;;;;;;;35.03;27.68;100486.97;5065029;28;20028;-76
2023/06/21 12:44:45;;;;;;;0.00;0.00;;;;;;;37.12;24.91;100488.88;5062465;28;20387;-75
2023/06/21 12:47:12;;;;;;;0.00;0.00;;;;;;;36.89;24.44;100477.66;5056226;28;20035;-76
2023/06/21 12:49:37;;;;;;;0.00;0.00;;;;;;;36.20;25.70;100482.19;5059732;28;20061;-76
2023/06/21 12:52:03;;;;;;;0.00;0.00;;;;;;;34.04;28.00;100480.38;5061523;28;20048;-76
2023/06/21 12:54:28;;;;;;;0.00;0.00;;;;;;;33.73;29.69;100477.53;5028428;28;20029;-75
2023/06/21 12:56:58;;;;;;;0.00;0.00;;;;;;;32.61;31.16;100480.66;5050285;28;20483;-75
2023/06/21 12:59:24;;;;;;;0.00;0.00;;;;;;;33.06;31.94;100475.03;5051406;28;20457;-75
2023/06/21 13:02:17;;;;;;;0.00;0.00;;;;;;;33.20;30.42;100469.19;5062917;28;20047;-77
2023/06/21 13:04:46;;;;;;;0.00;0.00;;;;;;;36.09;27.52;100481.63;5056807;28;20036;-76
2023/06/21 13:07:11;;;;;;;0.00;0.00;;;;;;;38.57;23.86;100485.41;5051857;28;20024;-76
2023/06/21 13:09:37;;;;;;;0.00;0.00;;;;;;;39.87;22.96;100498.00;5049633;28;20027;-77
2023/06/21 13:12:02;;;;;;;0.00;0.00;;;;;;;40.65;21.39;100487.50;5073295;28;20076;-76
2023/06/21 13:14:28;;;;;;;0.00;0.00;;;;;;;42.55;20.34;100495.22;5066251;28;20036;-76
2023/06/21 13:16:53;;;;;;;0.00;0.00;;;;;;;44.50;18.85;100492.56;5068274;28;20111;-75
2023/06/21 13:19:18;;;;;;;0.00;0.00;;;;;;;45.08;16.86;100492.84;5065921;28;20081;-75
2023/06/21 13:21:44;;;;;;;0.00;0.00;;;;;;;44.54;17.45;100502.59;5050060;28;20039;-76